Terminal Aerodrome Forecast
Issued by NWS Tuscon, AZ

Home | Current Version | Previous Version | Text Only | Print | Product List | Glossary On
Versions: 1 2 3 4 5 6 7 8 9 10 11 12
000
FTUS45 KTWC 292335
TAFTUS
TAF
KTUS 292335Z 3000/3024 26012G19KT P6SM SCT100
     FM300300 28007KT P6SM FEW100
     FM300600 24005KT P6SM SKC
     FM301000 15009KT P6SM SKC
     FM301500 17013KT P6SM FEW090
     FM301900 21020G30KT P6SM SCT090=

USA.gov is the U.S. government's official web portal to all federal, state and local government web resources and services.